sensor_id;sensor_type;location;lat;lon;timestamp;pressure;altitude;pressure_sealevel;temperature;humidity
72585;BME280;60618;40.084;32.908;2023-07-08T00:01:13;89293.69;;;20.81;60.30
72585;BME280;60618;40.084;32.908;2023-07-08T00:03:41;89296.22;;;20.87;59.82
72585;BME280;60618;40.084;32.908;2023-07-08T00:06:14;89290.63;;;20.77;60.27
72585;BME280;60618;40.084;32.908;2023-07-08T00:08:42;89285.56;;;20.81;59.81
72585;BME280;60618;40.084;32.908;2023-07-08T00:11:14;89279.28;;;20.86;59.64
72585;BME280;60618;40.084;32.908;2023-07-08T00:13:41;89289.72;;;20.90;59.42
72585;BME280;60618;40.084;32.908;2023-07-08T00:16:18;89279.63;;;20.83;59.93
72585;BME280;60618;40.084;32.908;2023-07-08T00:18:46;89288.44;;;20.83;59.54
72585;BME280;60618;40.084;32.908;2023-07-08T00:21:15;89290.09;;;20.79;60.50
72585;BME280;60618;40.084;32.908;2023-07-08T00:23:50;89286.28;;;20.74;60.10
72585;BME280;60618;40.084;32.908;2023-07-08T00:26:23;89282.13;;;20.73;60.26
72585;BME280;60618;40.084;32.908;2023-07-08T00:28:52;89275.63;;;20.61;60.84
72585;BME280;60618;40.084;32.908;2023-07-08T00:31:19;89269.84;;;20.57;60.73
72585;BME280;60618;40.084;32.908;2023-07-08T00:33:46;89271.28;;;20.50;61.09
72585;BME280;60618;40.084;32.908;2023-07-08T00:36:15;89268.78;;;20.52;60.74
72585;BME280;60618;40.084;32.908;2023-07-08T00:38:43;89264.78;;;20.46;61.49
72585;BME280;60618;40.084;32.908;2023-07-08T00:41:21;89261.91;;;20.44;61.27
72585;BME280;60618;40.084;32.908;2023-07-08T00:43:53;89266.91;;;20.32;62.11
72585;BME280;60618;40.084;32.908;2023-07-08T00:51:37;89264.44;;;20.49;61.41
72585;BME280;60618;40.084;32.908;2023-07-08T00:54:15;89262.41;;;20.42;62.12
72585;BME280;60618;40.084;32.908;2023-07-08T00:59:25;89257.53;;;20.33;62.49
72585;BME280;60618;40.084;32.908;2023-07-08T01:01:55;89251.75;;;20.29;62.59
72585;BME280;60618;40.084;32.908;2023-07-08T01:04:30;89249.03;;;20.29;62.32
72585;BME280;60618;40.084;32.908;2023-07-08T01:07:01;89247.03;;;20.22;62.90
72585;BME280;60618;40.084;32.908;2023-07-08T01:09:34;89239.47;;;20.28;62.21
72585;BME280;60618;40.084;32.908;2023-07-08T01:12:05;89251.41;;;20.32;62.72
72585;BME280;60618;40.084;32.908;2023-07-08T01:14:36;89253.00;;;20.28;62.80
72585;BME280;60618;40.084;32.908;2023-07-08T01:17:05;89256.78;;;20.25;63.06
72585;BME280;60618;40.084;32.908;2023-07-08T01:19:32;89258.59;;;20.22;63.27
72585;BME280;60618;40.084;32.908;2023-07-08T01:22:02;89253.72;;;20.13;63.83
72585;BME280;60618;40.084;32.908;2023-07-08T01:24:30;89258.56;;;20.15;63.65
72585;BME280;60618;40.084;32.908;2023-07-08T01:27:00;89250.47;;;20.15;63.68
72585;BME280;60618;40.084;32.908;2023-07-08T01:29:27;89254.97;;;20.20;63.67
72585;BME280;60618;40.084;32.908;2023-07-08T01:31:58;89258.38;;;20.20;63.56
72585;BME280;60618;40.084;32.908;2023-07-08T01:34:25;89260.38;;;20.20;63.69
72585;BME280;60618;40.084;32.908;2023-07-08T01:36:55;89265.25;;;20.13;64.51
72585;BME280;60618;40.084;32.908;2023-07-08T01:39:24;89267.75;;;20.19;64.29
72585;BME280;60618;40.084;32.908;2023-07-08T01:41:52;89263.97;;;20.07;64.90
72585;BME280;60618;40.084;32.908;2023-07-08T01:44:28;89265.00;;;20.04;62.95
72585;BME280;60618;40.084;32.908;2023-07-08T01:47:02;89258.41;;;19.69;63.20
72585;BME280;60618;40.084;32.908;2023-07-08T01:49:31;89259.09;;;19.62;63.72
72585;BME280;60618;40.084;32.908;2023-07-08T01:52:01;89257.59;;;19.53;64.29
72585;BME280;60618;40.084;32.908;2023-07-08T01:54:28;89259.75;;;19.54;66.67
72585;BME280;60618;40.084;32.908;2023-07-08T01:56:58;89244.97;;;19.55;67.46
72585;BME280;60618;40.084;32.908;2023-07-08T01:59:26;89248.31;;;19.41;69.25
72585;BME280;60618;40.084;32.908;2023-07-08T02:01:52;89244.53;;;19.36;69.57
72585;BME280;60618;40.084;32.908;2023-07-08T02:04:21;89237.00;;;19.42;69.38
72585;BME280;60618;40.084;32.908;2023-07-08T02:06:52;89240.56;;;19.37;70.43
72585;BME280;60618;40.084;32.908;2023-07-08T02:09:20;89240.88;;;19.26;71.15
72585;BME280;60618;40.084;32.908;2023-07-08T02:11:47;89242.31;;;19.27;70.59
72585;BME280;60618;40.084;32.908;2023-07-08T02:14:14;89251.34;;;19.29;70.95
72585;BME280;60618;40.084;32.908;2023-07-08T02:16:41;89252.06;;;19.30;71.23
72585;BME280;60618;40.084;32.908;2023-07-08T02:19:12;89242.69;;;19.23;71.61
72585;BME280;60618;40.084;32.908;2023-07-08T02:21:39;89252.34;;;19.19;71.72
72585;BME280;60618;40.084;32.908;2023-07-08T02:24:07;89255.97;;;19.21;71.79
72585;BME280;60618;40.084;32.908;2023-07-08T02:26:34;89255.44;;;19.23;71.32
72585;BME280;60618;40.084;32.908;2023-07-08T02:29:01;89263.53;;;19.23;71.57
72585;BME280;60618;40.084;32.908;2023-07-08T02:31:28;89255.63;;;19.25;71.74
72585;BME280;60618;40.084;32.908;2023-07-08T02:33:55;89255.63;;;19.25;71.45
72585;BME280;60618;40.084;32.908;2023-07-08T02:36:22;89267.31;;;19.20;72.01
72585;BME280;60618;40.084;32.908;2023-07-08T02:38:48;89272.31;;;19.16;72.41
72585;BME280;60618;40.084;32.908;2023-07-08T02:41:16;89272.69;;;19.20;71.99
72585;BME280;60618;40.084;32.908;2023-07-08T02:43:43;89278.50;;;19.24;71.84
72585;BME280;60618;40.084;32.908;2023-07-08T02:46:10;89278.69;;;19.26;71.65
72585;BME280;60618;40.084;32.908;2023-07-08T02:48:37;89269.69;;;19.31;71.39
72585;BME280;60618;40.084;32.908;2023-07-08T02:51:05;89267.00;;;19.31;71.60
72585;BME280;60618;40.084;32.908;2023-07-08T02:53:32;89262.50;;;19.26;71.96
72585;BME280;60618;40.084;32.908;2023-07-08T02:55:59;89252.94;;;19.25;72.21
72585;BME280;60618;40.084;32.908;2023-07-08T02:58:26;89259.59;;;19.24;71.96
72585;BME280;60618;40.084;32.908;2023-07-08T03:00:54;89250.97;;;19.25;72.02
72585;BME280;60618;40.084;32.908;2023-07-08T03:03:22;89258.91;;;19.31;71.70
72585;BME280;60618;40.084;32.908;2023-07-08T03:06:00;89242.75;;;19.39;71.30
72585;BME280;60618;40.084;32.908;2023-07-08T03:08:27;89251.78;;;19.41;71.33
72585;BME280;60618;40.084;32.908;2023-07-08T03:11:00;89251.97;;;19.43;71.19
72585;BME280;60618;40.084;32.908;2023-07-08T03:13:28;89251.06;;;19.48;70.92
72585;BME280;60618;40.084;32.908;2023-07-08T03:15:57;89249.34;;;19.59;70.62
72585;BME280;60618;40.084;32.908;2023-07-08T03:18:24;89260.19;;;19.66;70.53
72585;BME280;60618;40.084;32.908;2023-07-08T03:20:56;89258.03;;;19.65;70.71
72585;BME280;60618;40.084;32.908;2023-07-08T03:23:24;89262.38;;;19.75;70.03
72585;BME280;60618;40.084;32.908;2023-07-08T03:25:52;89266.03;;;19.85;69.86
72585;BME280;60618;40.084;32.908;2023-07-08T03:28:19;89263.88;;;19.84;70.06
72585;BME280;60618;40.084;32.908;2023-07-08T03:30:51;89265.72;;;19.97;69.35
72585;BME280;60618;40.084;32.908;2023-07-08T03:33:19;89261.59;;;20.03;69.20
72585;BME280;60618;40.084;32.908;2023-07-08T03:35:46;89257.50;;;20.18;68.50
72585;BME280;60618;40.084;32.908;2023-07-08T03:38:14;89255.53;;;20.26;68.48
72585;BME280;60618;40.084;32.908;2023-07-08T03:40:41;89259.31;;;20.38;68.02
72585;BME280;60618;40.084;32.908;2023-07-08T03:43:07;89260.66;;;20.52;67.75
72585;BME280;60618;40.084;32.908;2023-07-08T03:45:34;89255.97;;;20.60;67.11
72585;BME280;60618;40.084;32.908;2023-07-08T03:48:01;89254.72;;;20.77;66.79
72585;BME280;60618;40.084;32.908;2023-07-08T03:50:29;89255.09;;;20.96;65.66
72585;BME280;60618;40.084;32.908;2023-07-08T03:52:56;89256.88;;;21.16;64.96
72585;BME280;60618;40.084;32.908;2023-07-08T03:55:23;89265.16;;;21.26;65.32
72585;BME280;60618;40.084;32.908;2023-07-08T03:57:50;89272.38;;;21.46;64.16
72585;BME280;60618;40.084;32.908;2023-07-08T04:00:17;89265.72;;;21.40;63.71
72585;BME280;60618;40.084;32.908;2023-07-08T04:02:45;89267.31;;;21.50;64.01
72585;BME280;60618;40.084;32.908;2023-07-08T04:05:16;89264.06;;;21.52;63.35
72585;BME280;60618;40.084;32.908;2023-07-08T04:07:43;89274.16;;;21.67;62.87
72585;BME280;60618;40.084;32.908;2023-07-08T04:10:10;89262.91;;;21.78;62.43
72585;BME280;60618;40.084;32.908;2023-07-08T04:12:38;89273.66;;;22.01;62.06
72585;BME280;60618;40.084;32.908;2023-07-08T04:15:08;89272.44;;;22.34;60.67
72585;BME280;60618;40.084;32.908;2023-07-08T04:17:39;89280.75;;;22.69;59.58
72585;BME280;60618;40.084;32.908;2023-07-08T04:20:08;89276.94;;;23.05;57.80
72585;BME280;60618;40.084;32.908;2023-07-08T04:22:36;89284.81;;;23.35;57.21
72585;BME280;60618;40.084;32.908;2023-07-08T04:25:03;89277.38;;;23.61;56.56
72585;BME280;60618;40.084;32.908;2023-07-08T04:27:30;89289.06;;;23.88;55.78
72585;BME280;60618;40.084;32.908;2023-07-08T04:29:57;89288.34;;;24.05;53.28
72585;BME280;60618;40.084;32.908;2023-07-08T04:32:24;89283.94;;;24.10;51.77
72585;BME280;60618;40.084;32.908;2023-07-08T04:34:52;89282.50;;;23.91;51.09
72585;BME280;60618;40.084;32.908;2023-07-08T04:37:19;89285.47;;;23.43;52.42
72585;BME280;60618;40.084;32.908;2023-07-08T04:39:46;89288.72;;;23.67;54.84
72585;BME280;60618;40.084;32.908;2023-07-08T04:42:14;89303.94;;;23.70;54.71
72585;BME280;60618;40.084;32.908;2023-07-08T04:44:42;89299.06;;;23.68;55.58
72585;BME280;60618;40.084;32.908;2023-07-08T04:47:08;89296.19;;;24.01;54.45
72585;BME280;60618;40.084;32.908;2023-07-08T04:49:35;89300.50;;;24.21;53.73
72585;BME280;60618;40.084;32.908;2023-07-08T04:52:02;89296.91;;;24.19;53.89
72585;BME280;60618;40.084;32.908;2023-07-08T04:54:29;89300.56;;;24.14;53.11
72585;BME280;60618;40.084;32.908;2023-07-08T04:56:56;89298.00;;;23.98;53.04
72585;BME280;60618;40.084;32.908;2023-07-08T04:59:24;89287.84;;;24.16;51.73
72585;BME280;60618;40.084;32.908;2023-07-08T05:01:52;89295.44;;;24.35;51.04
72585;BME280;60618;40.084;32.908;2023-07-08T05:04:21;89291.22;;;24.69;49.94
72585;BME280;60618;40.084;32.908;2023-07-08T05:06:49;89291.69;;;24.75;48.92
72585;BME280;60618;40.084;32.908;2023-07-08T05:09:16;89293.25;;;24.78;49.37
72585;BME280;60618;40.084;32.908;2023-07-08T05:11:44;89286.03;;;24.90;48.51
72585;BME280;60618;40.084;32.908;2023-07-08T05:14:12;89290.53;;;24.78;50.14
72585;BME280;60618;40.084;32.908;2023-07-08T05:16:40;89301.84;;;25.01;48.52
72585;BME280;60618;40.084;32.908;2023-07-08T05:19:07;89310.25;;;25.23;47.75
72585;BME280;60618;40.084;32.908;2023-07-08T05:21:34;89297.25;;;25.40;47.05
72585;BME280;60618;40.084;32.908;2023-07-08T05:24:02;89296.91;;;25.63;46.38
72585;BME280;60618;40.084;32.908;2023-07-08T05:26:30;89292.66;;;25.80;46.76
72585;BME280;60618;40.084;32.908;2023-07-08T05:28:57;89295.53;;;26.01;45.50
72585;BME280;60618;40.084;32.908;2023-07-08T05:31:24;89292.38;;;26.04;46.11
72585;BME280;60618;40.084;32.908;2023-07-08T05:34:11;89289.09;;;26.16;46.74
72585;BME280;60618;40.084;32.908;2023-07-08T05:36:38;89281.31;;;26.41;45.45
72585;BME280;60618;40.084;32.908;2023-07-08T05:39:05;89281.72;;;26.57;45.10
72585;BME280;60618;40.084;32.908;2023-07-08T05:41:31;89280.91;;;26.45;44.17
72585;BME280;60618;40.084;32.908;2023-07-08T05:43:58;89275.69;;;26.49;44.74
72585;BME280;60618;40.084;32.908;2023-07-08T05:46:25;89270.97;;;26.40;43.97
72585;BME280;60618;40.084;32.908;2023-07-08T05:48:52;89265.06;;;26.04;44.53
72585;BME280;60618;40.084;32.908;2023-07-08T05:51:20;89267.09;;;25.94;45.28
72585;BME280;60618;40.084;32.908;2023-07-08T05:53:47;89272.84;;;26.08;45.58
72585;BME280;60618;40.084;32.908;2023-07-08T05:56:14;89269.25;;;26.25;43.73
72585;BME280;60618;40.084;32.908;2023-07-08T05:58:41;89254.13;;;26.24;43.42
72585;BME280;60618;40.084;32.908;2023-07-08T06:01:10;89257.75;;;26.17;43.89
72585;BME280;60618;40.084;32.908;2023-07-08T06:03:40;89259.63;;;26.53;43.62
72585;BME280;60618;40.084;32.908;2023-07-08T06:06:07;89250.88;;;26.85;43.13
72585;BME280;60618;40.084;32.908;2023-07-08T06:08:34;89255.72;;;27.16;42.00
72585;BME280;60618;40.084;32.908;2023-07-08T06:11:01;89250.28;;;26.17;43.12
72585;BME280;60618;40.084;32.908;2023-07-08T06:13:29;89249.13;;;25.72;44.75
72585;BME280;60618;40.084;32.908;2023-07-08T06:15:56;89243.38;;;25.97;45.02
72585;BME280;60618;40.084;32.908;2023-07-08T06:18:23;89248.84;;;26.26;43.80
72585;BME280;60618;40.084;32.908;2023-07-08T06:20:54;89255.16;;;26.38;42.71
72585;BME280;60618;40.084;32.908;2023-07-08T06:23:22;89253.44;;;26.33;42.60
72585;BME280;60618;40.084;32.908;2023-07-08T06:25:49;89261.75;;;25.77;43.73
72585;BME280;60618;40.084;32.908;2023-07-08T06:28:17;89258.03;;;25.82;44.17
72585;BME280;60618;40.084;32.908;2023-07-08T06:30:44;89257.59;;;26.05;43.75
72585;BME280;60618;40.084;32.908;2023-07-08T06:33:11;89261.75;;;26.35;43.55
72585;BME280;60618;40.084;32.908;2023-07-08T06:35:40;89261.72;;;26.74;43.03
72585;BME280;60618;40.084;32.908;2023-07-08T06:38:08;89255.00;;;27.15;42.01
72585;BME280;60618;40.084;32.908;2023-07-08T06:40:35;89263.41;;;26.88;41.07
72585;BME280;60618;40.084;32.908;2023-07-08T06:43:03;89262.47;;;26.55;42.29
72585;BME280;60618;40.084;32.908;2023-07-08T06:45:29;89255.44;;;26.52;42.66
72585;BME280;60618;40.084;32.908;2023-07-08T06:48:02;89255.41;;;26.71;43.18
72585;BME280;60618;40.084;32.908;2023-07-08T06:50:30;89252.09;;;26.63;42.17
72585;BME280;60618;40.084;32.908;2023-07-08T06:52:59;89243.66;;;27.00;41.22
72585;BME280;60618;40.084;32.908;2023-07-08T06:55:28;89252.00;;;26.51;41.31
72585;BME280;60618;40.084;32.908;2023-07-08T06:57:55;89244.97;;;26.00;43.65
72585;BME280;60618;40.084;32.908;2023-07-08T07:00:22;89250.97;;;26.56;42.79
72585;BME280;60618;40.084;32.908;2023-07-08T07:02:52;89243.59;;;27.19;41.29
72585;BME280;60618;40.084;32.908;2023-07-08T07:05:19;89244.66;;;27.66;40.89
72585;BME280;60618;40.084;32.908;2023-07-08T07:07:49;89244.09;;;27.06;40.39
72585;BME280;60618;40.084;32.908;2023-07-08T07:10:16;89245.31;;;27.24;39.58
72585;BME280;60618;40.084;32.908;2023-07-08T07:12:43;89239.06;;;26.93;40.73
72585;BME280;60618;40.084;32.908;2023-07-08T07:15:10;89232.41;;;26.65;40.59
72585;BME280;60618;40.084;32.908;2023-07-08T07:17:37;89238.50;;;26.34;41.88
72585;BME280;60618;40.084;32.908;2023-07-08T07:20:05;89233.34;;;26.88;41.58
72585;BME280;60618;40.084;32.908;2023-07-08T07:22:32;89231.19;;;27.49;39.86
72585;BME280;60618;40.084;32.908;2023-07-08T07:25:03;89229.94;;;27.40;39.73
72585;BME280;60618;40.084;32.908;2023-07-08T07:27:32;89230.63;;;27.20;39.71
72585;BME280;60618;40.084;32.908;2023-07-08T07:29:59;89221.50;;;26.96;40.48
72585;BME280;60618;40.084;32.908;2023-07-08T07:32:31;89229.78;;;27.17;40.44
72585;BME280;60618;40.084;32.908;2023-07-08T07:34:59;89217.50;;;27.80;40.53
72585;BME280;60618;40.084;32.908;2023-07-08T07:37:25;89215.41;;;28.56;37.34
72585;BME280;60618;40.084;32.908;2023-07-08T07:39:52;89225.03;;;29.02;35.46
72585;BME280;60618;40.084;32.908;2023-07-08T07:42:19;89211.56;;;29.18;34.93
72585;BME280;60618;40.084;32.908;2023-07-08T07:44:47;89212.81;;;28.70;34.80
72585;BME280;60618;40.084;32.908;2023-07-08T07:47:14;89213.13;;;26.72;39.37
72585;BME280;60618;40.084;32.908;2023-07-08T07:49:41;89216.47;;;26.61;39.77
72585;BME280;60618;40.084;32.908;2023-07-08T07:52:08;89216.97;;;26.79;38.92
72585;BME280;60618;40.084;32.908;2023-07-08T07:54:35;89220.88;;;26.66;38.91
72585;BME280;60618;40.084;32.908;2023-07-08T07:57:02;89219.56;;;26.07;40.15
72585;BME280;60618;40.084;32.908;2023-07-08T07:59:29;89222.81;;;25.57;41.32
72585;BME280;60618;40.084;32.908;2023-07-08T08:01:56;89219.84;;;25.72;41.18
72585;BME280;60618;40.084;32.908;2023-07-08T08:04:23;89212.31;;;26.31;41.06
72585;BME280;60618;40.084;32.908;2023-07-08T08:06:50;89227.22;;;27.09;39.23
72585;BME280;60618;40.084;32.908;2023-07-08T08:09:17;89219.50;;;27.80;37.66
72585;BME280;60618;40.084;32.908;2023-07-08T08:11:44;89211.63;;;28.28;36.20
72585;BME280;60618;40.084;32.908;2023-07-08T08:14:11;89216.06;;;28.67;35.44
72585;BME280;60618;40.084;32.908;2023-07-08T08:16:38;89207.78;;;27.67;33.92
72585;BME280;60618;40.084;32.908;2023-07-08T08:19:05;89201.72;;;27.17;35.18
72585;BME280;60618;40.084;32.908;2023-07-08T08:21:37;89199.06;;;27.07;36.26
72585;BME280;60618;40.084;32.908;2023-07-08T08:24:04;89193.00;;;27.30;35.83
72585;BME280;60618;40.084;32.908;2023-07-08T08:26:32;89192.03;;;27.78;35.89
72585;BME280;60618;40.084;32.908;2023-07-08T08:29:03;89196.50;;;27.52;35.80
72585;BME280;60618;40.084;32.908;2023-07-08T08:31:30;89194.50;;;27.74;35.49
72585;BME280;60618;40.084;32.908;2023-07-08T08:33:57;89194.53;;;28.07;36.17
72585;BME280;60618;40.084;32.908;2023-07-08T08:36:24;89184.59;;;28.68;34.85
72585;BME280;60618;40.084;32.908;2023-07-08T08:38:51;89184.38;;;28.87;32.99
72585;BME280;60618;40.084;32.908;2023-07-08T08:41:24;89182.38;;;28.43;30.83
72585;BME280;60618;40.084;32.908;2023-07-08T08:43:54;89177.31;;;27.94;33.15
72585;BME280;60618;40.084;32.908;2023-07-08T08:46:54;89180.75;;;28.28;33.44
72585;BME280;60618;40.084;32.908;2023-07-08T08:49:30;89175.16;;;28.26;33.90
72585;BME280;60618;40.084;32.908;2023-07-08T08:51:59;89174.94;;;27.89;34.26
72585;BME280;60618;40.084;32.908;2023-07-08T08:54:26;89178.91;;;27.55;35.00
72585;BME280;60618;40.084;32.908;2023-07-08T08:59:53;89167.59;;;27.70;32.29
72585;BME280;60618;40.084;32.908;2023-07-08T09:05:06;89164.31;;;27.62;33.32
72585;BME280;60618;40.084;32.908;2023-07-08T09:07:58;89155.44;;;27.30;33.71
72585;BME280;60618;40.084;32.908;2023-07-08T09:10:59;89158.19;;;26.68;35.04
72585;BME280;60618;40.084;32.908;2023-07-08T09:13:35;89170.06;;;26.82;34.75
72585;BME280;60618;40.084;32.908;2023-07-08T09:16:44;89158.94;;;27.21;33.70
72585;BME280;60618;40.084;32.908;2023-07-08T09:19:14;89153.63;;;27.44;32.91
72585;BME280;60618;40.084;32.908;2023-07-08T09:27:38;89161.84;;;29.24;30.73
72585;BME280;60618;40.084;32.908;2023-07-08T09:30:13;89155.75;;;29.49;30.53
72585;BME280;60618;40.084;32.908;2023-07-08T09:32:40;89152.53;;;28.82;29.05
72585;BME280;60618;40.084;32.908;2023-07-08T09:35:09;89156.53;;;28.13;31.32
72585;BME280;60618;40.084;32.908;2023-07-08T09:37:46;89161.69;;;28.63;31.91
72585;BME280;60618;40.084;32.908;2023-07-08T09:40:17;89156.97;;;28.99;32.31
72585;BME280;60618;40.084;32.908;2023-07-08T09:42:49;89153.03;;;29.14;31.13
72585;BME280;60618;40.084;32.908;2023-07-08T09:45:22;89155.72;;;29.37;30.21
72585;BME280;60618;40.084;32.908;2023-07-08T09:47:56;89152.75;;;29.45;30.00
72585;BME280;60618;40.084;32.908;2023-07-08T09:50:27;89160.16;;;29.42;30.36
72585;BME280;60618;40.084;32.908;2023-07-08T09:52:56;89163.25;;;29.48;30.56
72585;BME280;60618;40.084;32.908;2023-07-08T09:55:29;89161.25;;;29.49;30.75
72585;BME280;60618;40.084;32.908;2023-07-08T09:57:58;89166.91;;;29.64;31.38
72585;BME280;60618;40.084;32.908;2023-07-08T10:00:31;89163.75;;;29.82;31.21
72585;BME280;60618;40.084;32.908;2023-07-08T10:03:03;89178.16;;;29.33;30.58
72585;BME280;60618;40.084;32.908;2023-07-08T10:05:35;89169.47;;;29.25;31.42
72585;BME280;60618;40.084;32.908;2023-07-08T10:08:25;89186.16;;;29.29;31.75
72585;BME280;60618;40.084;32.908;2023-07-08T10:11:09;89192.38;;;29.18;35.16
72585;BME280;60618;40.084;32.908;2023-07-08T10:13:42;89190.41;;;28.50;37.12
72585;BME280;60618;40.084;32.908;2023-07-08T10:16:26;89200.78;;;27.55;39.26
72585;BME280;60618;40.084;32.908;2023-07-08T10:18:54;89191.72;;;26.59;41.38
72585;BME280;60618;40.084;32.908;2023-07-08T10:26:29;89195.88;;;24.69;44.79
72585;BME280;60618;40.084;32.908;2023-07-08T10:31:59;89180.16;;;23.96;47.27
72585;BME280;60618;40.084;32.908;2023-07-08T10:37:59;89207.22;;;23.42;50.76
72585;BME280;60618;40.084;32.908;2023-07-08T10:40:48;89216.31;;;23.19;51.38
72585;BME280;60618;40.084;32.908;2023-07-08T10:43:44;89218.25;;;22.84;52.97
72585;BME280;60618;40.084;32.908;2023-07-08T10:46:23;89208.75;;;22.35;54.85
72585;BME280;60618;40.084;32.908;2023-07-08T10:54:53;89213.31;;;21.45;58.59
72585;BME280;60618;40.084;32.908;2023-07-08T11:06:00;89227.66;;;20.69;67.05
72585;BME280;60618;40.084;32.908;2023-07-08T11:08:37;89225.13;;;20.79;66.25
72585;BME280;60618;40.084;32.908;2023-07-08T11:11:07;89213.38;;;20.99;67.10
72585;BME280;60618;40.084;32.908;2023-07-08T11:13:50;89224.91;;;21.07;66.09
72585;BME280;60618;40.084;32.908;2023-07-08T11:19:06;89223.66;;;21.16;65.86
72585;BME280;60618;40.084;32.908;2023-07-08T11:21:46;89225.44;;;21.21;64.59
72585;BME280;60618;40.084;32.908;2023-07-08T11:32:39;89241.34;;;21.17;63.27
72585;BME280;60618;40.084;32.908;2023-07-08T11:35:17;89260.28;;;21.24;62.15
72585;BME280;60618;40.084;32.908;2023-07-08T11:37:45;89279.97;;;21.17;62.77
72585;BME280;60618;40.084;32.908;2023-07-08T11:40:23;89291.19;;;20.98;61.95
72585;BME280;60618;40.084;32.908;2023-07-08T11:42:52;89281.78;;;20.69;65.42
72585;BME280;60618;40.084;32.908;2023-07-08T11:45:30;89286.13;;;20.80;65.63
72585;BME280;60618;40.084;32.908;2023-07-08T11:48:10;89294.31;;;20.36;67.00
72585;BME280;60618;40.084;32.908;2023-07-08T11:50:43;89291.44;;;20.34;68.13
72585;BME280;60618;40.084;32.908;2023-07-08T11:56:17;89283.94;;;20.93;63.55
72585;BME280;60618;40.084;32.908;2023-07-08T12:01:28;89284.84;;;21.11;62.36
72585;BME280;60618;40.084;32.908;2023-07-08T12:04:16;89286.09;;;21.03;62.28
72585;BME280;60618;40.084;32.908;2023-07-08T12:06:48;89281.63;;;21.05;61.81
72585;BME280;60618;40.084;32.908;2023-07-08T12:09:30;89274.94;;;21.21;61.32
72585;BME280;60618;40.084;32.908;2023-07-08T12:12:07;89271.31;;;21.34;60.82
72585;BME280;60618;40.084;32.908;2023-07-08T12:14:37;89268.75;;;21.59;59.33
72585;BME280;60618;40.084;32.908;2023-07-08T12:17:08;89273.38;;;21.81;58.59
72585;BME280;60618;40.084;32.908;2023-07-08T12:19:36;89270.09;;;21.91;58.19
72585;BME280;60618;40.084;32.908;2023-07-08T12:22:04;89270.69;;;21.74;58.91
72585;BME280;60618;40.084;32.908;2023-07-08T12:24:31;89275.50;;;21.91;58.38
72585;BME280;60618;40.084;32.908;2023-07-08T12:26:58;89273.44;;;21.66;58.89
72585;BME280;60618;40.084;32.908;2023-07-08T12:29:25;89278.50;;;21.47;60.20
72585;BME280;60618;40.084;32.908;2023-07-08T12:31:52;89277.38;;;21.65;59.61
72585;BME280;60618;40.084;32.908;2023-07-08T12:34:20;89273.38;;;21.81;59.62
72585;BME280;60618;40.084;32.908;2023-07-08T12:36:48;89267.78;;;21.79;59.13
72585;BME280;60618;40.084;32.908;2023-07-08T12:39:17;89263.97;;;21.82;58.63
72585;BME280;60618;40.084;32.908;2023-07-08T12:41:45;89272.56;;;22.04;59.06
72585;BME280;60618;40.084;32.908;2023-07-08T12:44:23;89276.06;;;22.37;58.37
72585;BME280;60618;40.084;32.908;2023-07-08T12:46:53;89275.34;;;22.69;57.83
72585;BME280;60618;40.084;32.908;2023-07-08T12:49:21;89276.63;;;22.68;56.76
72585;BME280;60618;40.084;32.908;2023-07-08T12:51:48;89266.00;;;22.55;57.83
72585;BME280;60618;40.084;32.908;2023-07-08T12:54:15;89267.19;;;22.36;59.29
72585;BME280;60618;40.084;32.908;2023-07-08T12:56:44;89259.38;;;22.08;60.71
72585;BME280;60618;40.084;32.908;2023-07-08T12:59:17;89258.16;;;21.94;60.47
72585;BME280;60618;40.084;32.908;2023-07-08T13:01:47;89253.09;;;21.90;60.14
72585;BME280;60618;40.084;32.908;2023-07-08T13:04:15;89249.59;;;22.05;58.67
72585;BME280;60618;40.084;32.908;2023-07-08T13:06:44;89253.88;;;22.23;58.12
72585;BME280;60618;40.084;32.908;2023-07-08T13:09:22;89251.13;;;22.31;56.70
72585;BME280;60618;40.084;32.908;2023-07-08T13:11:50;89245.03;;;22.23;57.17
72585;BME280;60618;40.084;32.908;2023-07-08T13:14:19;89253.25;;;22.40;56.52
72585;BME280;60618;40.084;32.908;2023-07-08T13:16:47;89255.84;;;22.55;55.47
72585;BME280;60618;40.084;32.908;2023-07-08T13:19:14;89260.75;;;22.57;55.26
72585;BME280;60618;40.084;32.908;2023-07-08T13:21:41;89260.75;;;22.57;54.96
72585;BME280;60618;40.084;32.908;2023-07-08T13:24:12;89266.69;;;22.63;55.39
72585;BME280;60618;40.084;32.908;2023-07-08T13:26:39;89266.09;;;22.40;56.01
72585;BME280;60618;40.084;32.908;2023-07-08T13:29:14;89260.66;;;22.07;57.09
72585;BME280;60618;40.084;32.908;2023-07-08T13:31:47;89253.44;;;22.02;58.08
72585;BME280;60618;40.084;32.908;2023-07-08T13:34:19;89244.03;;;22.35;57.03
72585;BME280;60618;40.084;32.908;2023-07-08T13:36:50;89248.63;;;22.25;56.65
72585;BME280;60618;40.084;32.908;2023-07-08T13:39:32;89245.50;;;22.61;56.71
72585;BME280;60618;40.084;32.908;2023-07-08T13:42:01;89228.47;;;22.69;55.84
72585;BME280;60618;40.084;32.908;2023-07-08T13:44:28;89230.78;;;22.72;54.80
72585;BME280;60618;40.084;32.908;2023-07-08T13:46:59;89228.50;;;22.61;54.06
72585;BME280;60618;40.084;32.908;2023-07-08T13:49:30;89229.19;;;22.36;55.20
72585;BME280;60618;40.084;32.908;2023-07-08T13:52:23;89221.97;;;21.99;56.49
72585;BME280;60618;40.084;32.908;2023-07-08T13:54:53;89225.38;;;21.99;57.01
72585;BME280;60618;40.084;32.908;2023-07-08T13:57:28;89225.31;;;22.22;56.82
72585;BME280;60618;40.084;32.908;2023-07-08T13:59:55;89222.88;;;22.34;56.88
72585;BME280;60618;40.084;32.908;2023-07-08T14:02:28;89229.31;;;22.21;57.19
72585;BME280;60618;40.084;32.908;2023-07-08T14:04:57;89208.19;;;22.12;57.26
72585;BME280;60618;40.084;32.908;2023-07-08T14:07:30;89220.06;;;22.24;57.58